Time;durP1;ratioP1;P1;durP2;ratioP2;P2;SDS_P1;SDS_P2;PMS_P1;PMS_P2;Temp;Humidity;BMP_temperature;BMP_pressure;BME280_temperature;BME280_humidity;BME280_pressure;Samples;Min_cycle;Max_cycle;Signal;HPM_P1;HPM_P2
2023/01/25 00:02:01;;;;;;;2.60;2.60;;;15.70;64.00;;;;;;5098543;27;43438;-71
2023/01/25 00:04:29;;;;;;;2.50;2.50;;;15.70;64.10;;;;;;5101832;27;43944;-72
2023/01/25 00:06:57;;;;;;;2.43;2.43;;;15.70;64.80;;;;;;5100751;27;43295;-71
2023/01/25 00:09:25;;;;;;;2.30;2.30;;;15.60;64.00;;;;;;5100447;27;45086;-71
2023/01/25 00:11:57;;;;;;;2.33;2.33;;;15.60;64.00;;;;;;5100056;27;44522;-70
2023/01/25 00:14:24;;;;;;;2.50;2.50;;;15.60;64.10;;;;;;5093901;27;43459;-71
2023/01/25 00:16:53;;;;;;;2.57;2.57;;;15.60;64.30;;;;;;5080773;27;43486;-70
2023/01/25 00:19:21;;;;;;;2.63;2.63;;;15.50;64.40;;;;;;5084855;27;45972;-72
2023/01/25 00:21:49;;;;;;;2.50;2.50;;;15.60;64.40;;;;;;5088811;27;44841;-71
2023/01/25 00:24:16;;;;;;;2.73;2.73;;;15.50;64.20;;;;;;5102518;27;43506;-72
2023/01/25 00:26:44;;;;;;;2.40;2.40;;;15.60;64.30;;;;;;5100459;27;43419;-73
2023/01/25 00:29:14;;;;;;;2.40;2.40;;;15.50;64.20;;;;;;5094993;27;43923;-72
2023/01/25 00:31:47;;;;;;;2.43;2.43;;;15.50;64.30;;;;;;5086295;27;44599;-72
2023/01/25 00:34:46;;;;;;;2.20;2.20;;;15.50;64.40;;;;;;5074318;27;43953;-71
2023/01/25 00:37:24;;;;;;;2.40;2.40;;;15.50;64.70;;;;;;5092147;27;43647;-72
2023/01/25 00:39:52;;;;;;;2.47;2.47;;;15.50;64.50;;;;;;5096419;27;43893;-72
2023/01/25 00:42:20;;;;;;;2.30;2.30;;;15.70;64.30;;;;;;5106605;27;43932;-72
2023/01/25 00:44:49;;;;;;;2.60;2.50;;;15.80;64.00;;;;;;5080326;27;43430;-71
2023/01/25 00:47:19;;;;;;;2.20;2.20;;;15.80;63.70;;;;;;5101634;27;44007;-71
2023/01/25 00:49:47;;;;;;;2.23;2.23;;;15.80;63.70;;;;;;5083568;27;45887;-72
2023/01/25 00:52:15;;;;;;;2.50;2.50;;;15.70;63.80;;;;;;5104711;27;43363;-71
2023/01/25 00:54:43;;;;;;;2.20;2.20;;;15.70;64.00;;;;;;5086441;27;43987;-71
2023/01/25 00:57:11;;;;;;;2.23;2.23;;;15.70;64.00;;;;;;5083830;27;43556;-71
2023/01/25 00:59:43;;;;;;;2.47;2.47;;;15.70;63.90;;;;;;5102930;27;43927;-70
2023/01/25 01:02:12;;;;;;;2.23;2.23;;;15.70;64.00;;;;;;5083928;27;44717;-71
2023/01/25 01:04:40;;;;;;;2.40;2.40;;;15.60;64.00;;;;;;5081281;27;43383;-72
2023/01/25 01:07:09;;;;;;;2.30;2.30;;;15.60;64.20;;;;;;5081961;27;43373;-71
2023/01/25 01:09:37;;;;;;;2.20;2.20;;;15.60;64.20;;;;;;5104917;27;43899;-71
2023/01/25 01:12:05;;;;;;;2.37;2.37;;;15.50;64.30;;;;;;5081794;27;44621;-72
2023/01/25 01:14:33;;;;;;;2.53;2.43;;;15.50;64.40;;;;;;5085147;27;43373;-70
2023/01/25 01:17:01;;;;;;;2.20;2.20;;;15.50;64.20;;;;;;5108641;27;43435;-72
2023/01/25 01:19:30;;;;;;;2.00;2.00;;;15.50;64.30;;;;;;5080299;28;46347;-72
2023/01/25 01:21:58;;;;;;;2.17;2.17;;;15.50;64.30;;;;;;5078073;28;44570;-71
2023/01/25 01:24:29;;;;;;;2.20;2.20;;;15.50;64.40;;;;;;5081625;27;43442;-71
2023/01/25 01:26:57;;;;;;;2.30;2.30;;;15.50;64.40;;;;;;5087095;27;43438;-71
2023/01/25 01:29:25;;;;;;;1.70;1.70;;;15.50;64.50;;;;;;5081747;27;45912;-70
2023/01/25 01:31:53;;;;;;;2.40;2.40;;;15.50;64.70;;;;;;5083252;28;44371;-71
2023/01/25 01:34:24;;;;;;;2.47;2.47;;;15.60;64.50;;;;;;5079227;27;43488;-71
2023/01/25 01:36:54;;;;;;;2.13;2.13;;;15.70;64.00;;;;;;5081531;27;43486;-72
2023/01/25 01:39:22;;;;;;;2.13;2.13;;;15.80;63.80;;;;;;5079317;27;45718;-71
2023/01/25 01:41:50;;;;;;;1.90;1.90;;;15.80;63.50;;;;;;5100493;27;43518;-71
2023/01/25 01:44:19;;;;;;;2.00;2.00;;;15.80;63.60;;;;;;5105341;27;43389;-72
2023/01/25 01:46:53;;;;;;;2.10;2.10;;;15.70;63.80;;;;;;5081427;27;43499;-71
2023/01/25 01:49:26;;;;;;;2.00;2.00;;;15.70;63.90;;;;;;5072107;27;43938;-71
2023/01/25 01:52:01;;;;;;;1.80;1.80;;;15.70;63.90;;;;;;5102266;27;43564;-72
2023/01/25 01:54:34;;;;;;;2.00;2.00;;;15.70;63.90;;;;;;5081988;27;43498;-72
2023/01/25 01:57:05;;;;;;;2.13;2.13;;;15.60;63.90;;;;;;5083286;27;43579;-71
2023/01/25 01:59:34;;;;;;;2.07;1.97;;;15.60;64.10;;;;;;5081553;27;44120;-70
2023/01/25 02:02:02;;;;;;;2.10;2.10;;;15.60;64.20;;;;;;5104994;27;43445;-71
2023/01/25 02:04:30;;;;;;;1.93;1.93;;;15.60;65.10;;;;;;5082933;27;43945;-72
2023/01/25 02:07:01;;;;;;;2.30;2.30;;;15.50;64.40;;;;;;5078415;27;43499;-72
2023/01/25 02:09:31;;;;;;;2.17;2.17;;;15.60;64.20;;;;;;5080716;27;45776;-70
2023/01/25 02:11:59;;;;;;;1.90;1.90;;;15.50;64.30;;;;;;5097995;27;43525;-71
2023/01/25 02:14:29;;;;;;;2.10;2.10;;;15.50;64.30;;;;;;5101965;27;43496;-72
2023/01/25 02:16:59;;;;;;;1.97;1.97;;;15.50;64.40;;;;;;5097565;27;43370;-71
2023/01/25 02:19:33;;;;;;;2.10;2.10;;;15.50;64.40;;;;;;5086295;27;45020;-71
2023/01/25 02:22:06;;;;;;;2.27;2.27;;;15.50;64.50;;;;;;5076895;27;44877;-71
2023/01/25 02:24:34;;;;;;;2.17;2.17;;;15.50;64.80;;;;;;5077086;28;43391;-71
2023/01/25 02:27:03;;;;;;;2.07;2.07;;;15.60;64.60;;;;;;5106249;27;43756;-70
2023/01/25 02:29:31;;;;;;;1.90;1.90;;;15.70;64.20;;;;;;5101513;27;43761;-70
2023/01/25 02:32:00;;;;;;;1.90;1.90;;;15.70;63.90;;;;;;5077597;27;44569;-69
2023/01/25 02:34:28;;;;;;;1.97;1.97;;;15.70;63.90;;;;;;5087527;27;43524;-70
2023/01/25 02:36:56;;;;;;;1.80;1.80;;;15.70;64.00;;;;;;5080803;28;43441;-70
2023/01/25 02:39:25;;;;;;;2.10;2.10;;;15.70;64.00;;;;;;5076572;28;46096;-70
2023/01/25 02:41:53;;;;;;;1.97;1.97;;;15.60;64.20;;;;;;5080523;28;44844;-71
2023/01/25 02:44:25;;;;;;;1.80;1.80;;;15.60;64.20;;;;;;5081265;27;44049;-72
2023/01/25 02:46:52;;;;;;;1.97;1.97;;;15.60;64.10;;;;;;5075993;27;44277;-70
2023/01/25 02:49:21;;;;;;;2.10;2.10;;;15.60;64.20;;;;;;5073540;28;46048;-70
2023/01/25 02:51:50;;;;;;;1.90;1.90;;;15.50;64.10;;;;;;5075531;27;44565;-71
2023/01/25 02:54:20;;;;;;;2.10;2.10;;;15.50;64.20;;;;;;5086682;27;43832;-70
2023/01/25 02:56:48;;;;;;;2.00;2.00;;;15.50;64.30;;;;;;5079604;27;43624;-71
2023/01/25 02:59:17;;;;;;;2.00;2.00;;;15.50;64.40;;;;;;5085285;27;46008;-71
2023/01/25 03:01:51;;;;;;;2.10;2.10;;;15.50;64.70;;;;;;5079953;27;44820;-70
2023/01/25 03:04:20;;;;;;;2.20;2.20;;;15.60;64.50;;;;;;5083087;27;43407;-70
2023/01/25 03:06:48;;;;;;;1.83;1.83;;;15.70;64.10;;;;;;5085256;27;43580;-71
2023/01/25 03:09:17;;;;;;;2.10;2.10;;;15.70;63.80;;;;;;5080761;27;43840;-72
2023/01/25 03:11:48;;;;;;;2.10;2.10;;;15.70;63.80;;;;;;5080978;27;44904;-70
2023/01/25 03:14:17;;;;;;;2.00;2.00;;;15.70;63.90;;;;;;5087321;27;44083;-70
2023/01/25 03:16:45;;;;;;;1.80;1.80;;;15.70;63.90;;;;;;5075609;27;43595;-72
2023/01/25 03:19:16;;;;;;;2.30;2.30;;;15.60;64.30;;;;;;5077147;27;45474;-69
2023/01/25 03:21:45;;;;;;;1.90;1.90;;;15.60;64.10;;;;;;5074997;27;44674;-70
2023/01/25 03:24:14;;;;;;;2.13;2.13;;;15.60;64.10;;;;;;5076537;27;43347;-70
2023/01/25 03:29:47;;;;;;;1.87;1.87;;;15.50;64.10;;;;;;5067648;27;45462;-70
2023/01/25 03:32:20;;;;;;;2.07;2.07;;;15.50;64.30;;;;;;5077928;27;43509;-70
2023/01/25 03:34:50;;;;;;;2.20;2.20;;;15.50;64.40;;;;;;5077348;27;43463;-70
2023/01/25 03:37:19;;;;;;;2.03;2.03;;;15.50;64.60;;;;;;5079558;27;43498;-71
2023/01/25 03:39:48;;;;;;;2.10;2.10;;;15.50;64.40;;;;;;5081800;27;45823;-72
2023/01/25 03:42:19;;;;;;;2.00;2.00;;;15.50;64.40;;;;;;5094543;27;43425;-71
2023/01/25 03:44:51;;;;;;;1.80;1.80;;;15.50;64.40;;;;;;5077911;27;43502;-71
2023/01/25 03:47:19;;;;;;;1.90;1.90;;;15.50;64.40;;;;;;5086180;27;44356;-69
2023/01/25 03:49:47;;;;;;;2.30;2.20;;;15.50;64.50;;;;;;5085146;27;45535;-70
2023/01/25 03:52:20;;;;;;;2.10;2.10;;;15.50;64.60;;;;;;5080134;27;43998;-70
2023/01/25 03:54:48;;;;;;;2.00;2.00;;;15.50;64.80;;;;;;5084929;27;43414;-71
2023/01/25 03:57:16;;;;;;;2.00;2.00;;;15.60;64.60;;;;;;5079644;27;43532;-71
2023/01/25 03:59:59;;;;;;;2.20;2.20;;;15.70;64.10;;;;;;5083977;27;44735;-70
2023/01/25 04:02:27;;;;;;;2.20;2.20;;;15.70;63.90;;;;;;5076314;27;44719;-70
2023/01/25 04:04:56;;;;;;;2.10;2.10;;;15.70;63.90;;;;;;5102545;27;43387;-71
2023/01/25 04:07:25;;;;;;;2.13;2.13;;;15.70;64.00;;;;;;5072871;28;43627;-70
2023/01/25 04:09:53;;;;;;;2.20;2.20;;;15.60;64.10;;;;;;5085193;27;44901;-72
2023/01/25 04:12:21;;;;;;;2.10;2.10;;;15.60;64.30;;;;;;5078625;27;45190;-70
2023/01/25 04:14:49;;;;;;;2.00;2.00;;;15.60;64.10;;;;;;5081494;28;43483;-70
2023/01/25 04:17:21;;;;;;;2.20;2.20;;;15.60;64.20;;;;;;5085261;28;43812;-71
2023/01/25 04:20:00;;;;;;;2.27;2.27;;;15.60;64.20;;;;;;5081070;27;44022;-71
2023/01/25 04:22:36;;;;;;;2.10;2.10;;;15.50;64.20;;;;;;5088451;27;43424;-70
2023/01/25 04:25:07;;;;;;;2.30;2.30;;;15.50;64.30;;;;;;5085296;27;43447;-71
2023/01/25 04:27:38;;;;;;;2.40;2.40;;;15.50;64.50;;;;;;5081456;27;43482;-71
2023/01/25 04:30:11;;;;;;;2.30;2.30;;;15.50;64.50;;;;;;5087933;27;44947;-70
2023/01/25 04:32:40;;;;;;;1.90;1.90;;;15.50;64.30;;;;;;5088606;27;43454;-70
2023/01/25 04:35:20;;;;;;;2.10;2.10;;;15.50;64.30;;;;;;5081765;27;43445;-71
2023/01/25 04:37:54;;;;;;;2.10;2.10;;;15.50;64.30;;;;;;5083226;27;44028;-70
2023/01/25 04:40:25;;;;;;;2.00;2.00;;;15.50;64.40;;;;;;5080214;27;44063;-71
2023/01/25 04:42:53;;;;;;;2.30;2.30;;;15.50;64.40;;;;;;5077981;27;44615;-71
2023/01/25 04:45:21;;;;;;;2.20;2.20;;;15.40;64.50;;;;;;5083495;27;43475;-71
2023/01/25 04:47:50;;;;;;;2.10;2.10;;;15.50;64.70;;;;;;5086591;28;43911;-70
2023/01/25 04:50:18;;;;;;;2.30;2.30;;;15.60;64.40;;;;;;5070752;27;45398;-70
2023/01/25 04:52:46;;;;;;;2.47;2.47;;;15.70;63.90;;;;;;5084185;28;44075;-70
2023/01/25 04:55:16;;;;;;;2.10;2.10;;;15.80;63.70;;;;;;5068851;28;43706;-70
2023/01/25 04:57:44;;;;;;;2.30;2.30;;;15.80;63.60;;;;;;5073656;27;43491;-71
2023/01/25 05:00:13;;;;;;;2.53;2.50;;;15.70;63.70;;;;;;5098656;27;43854;-71
2023/01/25 05:02:41;;;;;;;2.63;2.50;;;15.70;64.00;;;;;;5089203;27;44610;-72
2023/01/25 05:05:09;;;;;;;2.40;2.30;;;15.60;64.10;;;;;;5079111;27;43925;-72
2023/01/25 05:07:38;;;;;;;2.67;2.57;;;15.60;63.80;;;;;;5081982;27;43419;-70
2023/01/25 05:10:07;;;;;;;2.47;2.37;;;15.60;63.90;;;;;;5069734;27;45834;-70
2023/01/25 05:12:41;;;;;;;2.57;2.47;;;15.60;64.00;;;;;;5082558;27;44832;-70
2023/01/25 05:15:09;;;;;;;2.53;2.43;;;15.50;64.10;;;;;;5085811;27;43408;-70
2023/01/25 05:17:38;;;;;;;2.80;2.70;;;15.50;64.10;;;;;;5078343;27;44018;-71
2023/01/25 05:20:06;;;;;;;2.97;2.87;;;15.50;64.30;;;;;;5082319;27;43981;-69
2023/01/25 05:22:34;;;;;;;2.80;2.60;;;15.50;64.50;;;;;;5100081;27;43445;-70
2023/01/25 05:25:05;;;;;;;2.93;2.83;;;15.50;64.30;;;;;;5077647;27;43445;-70
2023/01/25 05:27:37;;;;;;;3.07;2.87;;;15.50;64.30;;;;;;5084257;27;43813;-71
2023/01/25 05:30:26;;;;;;;2.90;2.70;;;15.50;64.30;;;;;;5093833;27;43670;-72
2023/01/25 05:33:01;;;;;;;3.47;3.10;;;15.50;64.30;;;;;;5081946;28;43389;-70
2023/01/25 05:35:30;;;;;;;3.13;2.93;;;15.50;64.30;;;;;;5066209;28;43879;-70
2023/01/25 05:37:58;;;;;;;3.50;3.20;;;15.40;64.30;;;;;;5047194;28;43526;-71
2023/01/25 05:40:27;;;;;;;3.20;3.00;;;15.50;64.60;;;;;;5048250;28;46993;-71
2023/01/25 05:42:59;;;;;;;3.27;3.00;;;15.60;64.50;;;;;;5045448;28;44895;-72
2023/01/25 05:45:30;;;;;;;3.43;3.20;;;15.70;64.00;;;;;;5053704;28;44096;-72
2023/01/25 05:47:58;;;;;;;3.30;3.10;;;15.80;63.50;;;;;;5063290;28;43513;-70
2023/01/25 05:50:27;;;;;;;3.50;3.20;;;15.80;63.30;;;;;;5059548;28;45940;-71
2023/01/25 05:53:01;;;;;;;3.00;2.90;;;15.70;63.40;;;;;;5057751;28;44424;-70
2023/01/25 05:55:30;;;;;;;3.43;3.20;;;15.70;63.70;;;;;;5055487;28;43451;-69
2023/01/25 05:58:03;;;;;;;3.20;2.90;;;15.70;64.00;;;;;;5064524;28;43394;-69
2023/01/25 06:00:33;;;;;;;2.90;2.77;;;15.70;63.70;;;;;;5050445;28;45707;-70
2023/01/25 06:03:02;;;;;;;3.03;2.83;;;15.70;63.80;;;;;;5060112;28;43855;-70
2023/01/25 06:05:33;;;;;;;3.27;3.07;;;15.70;63.90;;;;;;5046017;28;43460;-70
2023/01/25 06:08:01;;;;;;;3.20;3.07;;;15.60;63.80;;;;;;5049640;28;43534;-71
2023/01/25 06:10:41;;;;;;;3.20;3.03;;;15.60;63.80;;;;;;5057241;28;43849;-72
2023/01/25 06:13:09;;;;;;;4.50;3.80;;;15.60;64.20;;;;;;5060198;28;45122;-70
2023/01/25 06:15:38;;;;;;;3.47;3.23;;;15.50;64.10;;;;;;5057394;28;43915;-70
2023/01/25 06:18:35;;;;;;;3.17;2.97;;;15.50;64.00;;;;;;5055608;28;43507;-71
2023/01/25 06:21:11;;;;;;;3.27;3.10;;;15.50;64.10;;;;;;5063495;28;46037;-71
2023/01/25 06:23:39;;;;;;;3.30;3.10;;;15.50;64.10;;;;;;5055161;28;43478;-71
2023/01/25 06:26:08;;;;;;;3.23;3.03;;;15.50;64.10;;;;;;5058783;28;43394;-71
2023/01/25 06:28:36;;;;;;;3.40;3.20;;;15.50;64.20;;;;;;5057160;28;43403;-70
2023/01/25 06:31:06;;;;;;;3.23;3.13;;;15.50;64.50;;;;;;5056986;28;43615;-70
2023/01/25 06:33:34;;;;;;;3.20;3.10;;;15.50;64.20;;;;;;5048620;28;44838;-71
2023/01/25 06:36:04;;;;;;;3.17;3.03;;;15.50;64.20;;;;;;5055116;28;43450;-71
2023/01/25 06:38:32;;;;;;;3.07;2.97;;;15.50;64.20;;;;;;5062346;28;43387;-69
2023/01/25 06:41:01;;;;;;;3.10;2.90;;;15.50;64.20;;;;;;5057300;28;43963;-71
2023/01/25 06:43:29;;;;;;;3.27;3.10;;;15.50;64.30;;;;;;5054092;28;43460;-71
2023/01/25 06:46:00;;;;;;;3.00;2.90;;;15.50;64.30;;;;;;5056057;28;43379;-71
2023/01/25 06:48:29;;;;;;;3.23;3.03;;;15.50;64.50;;;;;;5074136;28;43513;-70
2023/01/25 06:50:57;;;;;;;2.90;2.80;;;15.50;64.60;;;;;;5058576;28;43997;-70
2023/01/25 06:53:26;;;;;;;3.33;3.20;;;15.60;65.00;;;;;;5063125;28;43898;-72
2023/01/25 06:55:59;;;;;;;3.27;3.10;;;15.80;64.00;;;;;;5077295;28;43916;-69
2023/01/25 06:58:27;;;;;;;3.00;2.83;;;15.80;63.50;;;;;;5046192;28;44105;-70
2023/01/25 07:00:58;;;;;;;2.93;2.83;;;15.80;63.20;;;;;;5058779;28;43842;-69
2023/01/25 07:03:26;;;;;;;3.40;3.20;;;15.80;63.40;;;;;;5055142;28;44095;-71
2023/01/25 07:05:59;;;;;;;3.27;3.07;;;15.70;63.60;;;;;;5058902;28;43373;-70
2023/01/25 07:08:27;;;;;;;3.40;3.10;;;15.70;64.70;;;;;;5048343;28;43491;-70
2023/01/25 07:10:55;;;;;;;2.83;2.73;;;15.70;63.70;;;;;;5047641;28;43777;-71
2023/01/25 07:13:24;;;;;;;2.90;2.80;;;15.70;63.80;;;;;;5050298;28;43507;-72
2023/01/25 07:15:55;;;;;;;2.90;2.80;;;15.70;63.90;;;;;;5042274;28;43407;-70
2023/01/25 07:18:23;;;;;;;3.00;2.90;;;15.60;63.80;;;;;;5056410;28;43733;-69
2023/01/25 07:20:51;;;;;;;3.63;3.40;;;15.60;64.70;;;;;;5047667;28;43602;-70
2023/01/25 07:23:20;;;;;;;3.37;3.20;;;15.60;64.10;;;;;;5050145;28;43442;-71
2023/01/25 07:25:49;;;;;;;3.17;2.97;;;15.50;64.30;;;;;;5063512;28;43362;-70
2023/01/25 07:28:17;;;;;;;3.53;3.20;;;15.50;64.10;;;;;;5058469;28;43446;-70
2023/01/25 07:30:45;;;;;;;2.93;2.83;;;15.50;64.10;;;;;;5051147;28;43728;-71
2023/01/25 07:33:13;;;;;;;3.10;3.00;;;15.50;64.10;;;;;;5078937;28;44431;-71
2023/01/25 07:35:41;;;;;;;2.90;2.80;;;15.50;64.20;;;;;;5079001;27;43503;-69
2023/01/25 07:38:09;;;;;;;3.10;2.97;;;15.50;64.30;;;;;;5108180;27;43423;-71
2023/01/25 07:40:38;;;;;;;3.00;2.90;;;15.50;64.40;;;;;;5104669;27;43676;-70
2023/01/25 07:43:06;;;;;;;3.30;3.10;;;15.50;65.40;;;;;;5081755;27;45031;-70
2023/01/25 07:45:36;;;;;;;3.10;3.00;;;15.50;64.40;;;;;;5078962;27;43443;-71
2023/01/25 07:48:08;;;;;;;2.47;2.37;;;15.70;64.10;;;;;;5083245;27;43588;-70
2023/01/25 07:50:36;;;;;;;2.97;2.87;;;15.70;63.70;;;;;;5103119;27;43809;-71
2023/01/25 07:53:04;;;;;;;3.10;2.93;;;15.70;63.60;;;;;;5102370;27;43481;-70
2023/01/25 07:55:32;;;;;;;3.03;2.93;;;15.70;63.70;;;;;;5104698;27;43398;-69
2023/01/25 07:58:02;;;;;;;3.20;3.00;;;15.60;63.80;;;;;;5098535;27;43415;-70
2023/01/25 08:00:29;;;;;;;2.63;2.53;;;15.60;64.10;;;;;;5097353;27;43931;-72
2023/01/25 08:02:58;;;;;;;3.10;3.00;;;15.60;63.90;;;;;;5103528;27;43463;-70
2023/01/25 08:05:26;;;;;;;2.70;2.60;;;15.60;63.80;;;;;;5100975;27;43362;-71
2023/01/25 08:07:54;;;;;;;2.80;2.70;;;15.60;64.00;;;;;;5081574;27;43575;-71
2023/01/25 08:10:21;;;;;;;3.03;2.93;;;15.50;64.00;;;;;;5104018;27;44026;-71
2023/01/25 08:12:50;;;;;;;3.00;2.90;;;15.50;64.00;;;;;;5102413;27;44106;-70
2023/01/25 08:15:19;;;;;;;2.80;2.70;;;15.50;64.10;;;;;;5092690;27;43424;-71
2023/01/25 08:17:47;;;;;;;3.20;3.00;;;15.50;64.40;;;;;;5102435;27;43834;-71
2023/01/25 08:20:15;;;;;;;2.77;2.67;;;15.50;64.40;;;;;;5101371;27;43892;-71
2023/01/25 08:22:43;;;;;;;2.83;2.73;;;15.50;64.20;;;;;;5098121;27;43487;-71
2023/01/25 08:25:11;;;;;;;2.70;2.60;;;15.50;64.30;;;;;;5102436;27;43429;-72
2023/01/25 08:27:39;;;;;;;2.87;2.77;;;15.50;64.30;;;;;;5103960;27;43550;-70
2023/01/25 08:30:08;;;;;;;2.63;2.53;;;15.50;64.40;;;;;;5083714;27;45999;-70
2023/01/25 08:32:37;;;;;;;2.80;2.70;;;15.50;64.50;;;;;;5099392;27;44090;-70
2023/01/25 08:35:06;;;;;;;2.97;2.87;;;15.50;64.50;;;;;;5079777;27;43427;-71
2023/01/25 08:37:35;;;;;;;2.60;2.50;;;15.40;64.70;;;;;;5100748;27;43486;-69
2023/01/25 08:40:03;;;;;;;2.80;2.70;;;15.50;64.50;;;;;;5083311;27;45581;-70
2023/01/25 08:42:31;;;;;;;2.83;2.73;;;15.70;64.20;;;;;;5102242;27;43538;-71
2023/01/25 08:44:59;;;;;;;2.70;2.60;;;15.70;63.80;;;;;;5103499;27;43334;-70
2023/01/25 08:47:27;;;;;;;2.80;2.70;;;15.70;63.50;;;;;;5096199;27;43429;-70
2023/01/25 08:49:56;;;;;;;3.13;3.03;;;15.70;63.70;;;;;;5085597;27;46442;-70
2023/01/25 08:52:24;;;;;;;2.80;2.70;;;15.60;63.70;;;;;;5103749;27;43493;-72
2023/01/25 08:54:52;;;;;;;2.90;2.80;;;15.60;64.00;;;;;;5102678;27;44008;-71
2023/01/25 08:57:20;;;;;;;2.60;2.50;;;15.60;63.90;;;;;;5103336;27;43447;-70
2023/01/25 08:59:48;;;;;;;2.80;2.70;;;15.60;63.80;;;;;;5102933;27;43758;-71
2023/01/25 09:02:16;;;;;;;2.30;2.20;;;15.60;64.00;;;;;;5103609;27;43469;-71
2023/01/25 09:04:44;;;;;;;2.63;2.53;;;15.50;63.90;;;;;;5085795;27;43431;-70
2023/01/25 09:07:13;;;;;;;3.03;2.93;;;15.50;64.10;;;;;;5087795;27;43709;-71
2023/01/25 09:09:41;;;;;;;2.50;2.40;;;15.50;64.20;;;;;;5101882;27;43903;-70
2023/01/25 09:12:09;;;;;;;2.70;2.60;;;15.50;64.40;;;;;;5103004;27;44105;-71
2023/01/25 09:14:39;;;;;;;2.50;2.47;;;15.50;64.40;;;;;;5104892;27;43453;-70
2023/01/25 09:17:07;;;;;;;2.27;2.20;;;15.50;64.20;;;;;;5102118;27;43431;-70
2023/01/25 09:19:35;;;;;;;2.60;2.50;;;15.50;64.40;;;;;;5102168;27;43861;-69
2023/01/25 09:22:03;;;;;;;2.87;2.77;;;15.50;64.30;;;;;;5103596;27;43351;-71
2023/01/25 09:24:33;;;;;;;2.50;2.40;;;15.50;64.40;;;;;;5078968;28;43409;-71
2023/01/25 09:27:04;;;;;;;2.47;2.40;;;15.50;65.10;;;;;;5096787;27;43419;-70
2023/01/25 09:29:32;;;;;;;2.60;2.50;;;15.40;64.50;;;;;;5101777;27;43900;-71
2023/01/25 09:32:00;;;;;;;2.77;2.67;;;15.40;64.70;;;;;;5101763;27;43500;-71
2023/01/25 09:34:32;;;;;;;2.60;2.50;;;15.50;64.50;;;;;;5099744;27;43379;-71
2023/01/25 09:37:00;;;;;;;2.73;2.63;;;15.60;64.00;;;;;;5103851;27;43434;-71
2023/01/25 09:39:27;;;;;;;2.40;2.40;;;15.70;63.80;;;;;;5083660;28;45870;-71
2023/01/25 09:42:19;;;;;;;2.37;2.27;;;15.70;63.60;;;;;;5096887;27;43418;-70
2023/01/25 09:45:07;;;;;;;2.53;2.43;;;15.70;63.80;;;;;;5074925;27;43426;-70
2023/01/25 09:47:38;;;;;;;2.23;2.23;;;15.60;63.90;;;;;;5101560;27;43941;-69
2023/01/25 09:50:19;;;;;;;2.63;2.57;;;15.60;64.20;;;;;;5098859;27;43934;-69
2023/01/25 09:53:15;;;;;;;2.57;2.47;;;15.60;64.00;;;;;;5079442;28;45167;-70
2023/01/25 09:55:43;;;;;;;2.60;2.50;;;15.60;64.00;;;;;;5094807;27;43419;-71
2023/01/25 09:58:14;;;;;;;2.30;2.30;;;15.60;64.20;;;;;;5095255;27;43373;-70
2023/01/25 10:00:43;;;;;;;2.17;2.17;;;15.50;64.10;;;;;;5096050;27;43893;-71
2023/01/25 10:03:13;;;;;;;2.47;2.37;;;15.50;64.20;;;;;;5102831;27;43984;-70
2023/01/25 10:05:43;;;;;;;2.20;2.20;;;15.50;64.30;;;;;;5098470;27;43810;-71
2023/01/25 10:08:15;;;;;;;2.40;2.40;;;15.50;64.50;;;;;;5093066;27;43484;-70
2023/01/25 10:10:43;;;;;;;2.10;2.10;;;15.50;64.30;;;;;;5098374;27;43854;-71
2023/01/25 10:13:14;;;;;;;2.43;2.33;;;15.50;64.30;;;;;;5102229;27;43537;-70
2023/01/25 10:15:44;;;;;;;2.33;2.33;;;15.50;64.40;;;;;;5096226;27;43417;-72
2023/01/25 10:18:17;;;;;;;2.17;2.13;;;15.50;64.40;;;;;;5076318;28;43553;-70
2023/01/25 10:20:48;;;;;;;2.37;2.27;;;15.40;64.40;;;;;;5095197;27;43910;-69
2023/01/25 10:23:41;;;;;;;2.03;2.03;;;15.40;65.20;;;;;;5100126;27;43378;-70
2023/01/25 10:26:10;;;;;;;2.40;2.40;;;15.40;64.70;;;;;;5094740;27;43420;-71
2023/01/25 10:28:42;;;;;;;2.27;2.20;;;15.50;64.50;;;;;;5102537;27;43947;-72
2023/01/25 10:31:15;;;;;;;2.10;2.10;;;15.60;64.10;;;;;;5070815;27;45517;-72
2023/01/25 10:33:45;;;;;;;2.10;2.10;;;15.70;64.00;;;;;;5075295;27;43945;-71
2023/01/25 10:36:14;;;;;;;2.07;2.07;;;15.60;63.80;;;;;;5102681;27;43410;-71
2023/01/25 10:38:44;;;;;;;2.03;2.03;;;15.60;63.80;;;;;;5102396;27;43502;-70
2023/01/25 10:41:14;;;;;;;2.53;2.43;;;15.60;63.90;;;;;;5095177;27;43671;-71
2023/01/25 10:43:45;;;;;;;2.03;2.03;;;15.50;64.20;;;;;;5106594;27;43918;-71
2023/01/25 10:46:18;;;;;;;2.00;2.00;;;15.50;64.00;;;;;;5101152;27;43433;-71
2023/01/25 10:48:45;;;;;;;1.77;1.77;;;15.50;63.90;;;;;;5091346;27;43397;-70
2023/01/25 10:51:28;;;;;;;2.43;2.33;;;15.50;64.10;;;;;;5101876;27;43544;-70
2023/01/25 10:53:59;;;;;;;2.00;2.00;;;15.50;64.10;;;;;;5095710;27;43402;-70
2023/01/25 10:56:28;;;;;;;2.30;2.20;;;15.50;64.20;;;;;;5084621;27;43504;-71
2023/01/25 10:59:08;;;;;;;2.10;2.10;;;15.50;64.30;;;;;;5102023;27;43351;-71
2023/01/25 11:01:36;;;;;;;2.00;2.00;;;15.50;64.50;;;;;;5096485;27;44032;-70
2023/01/25 11:04:04;;;;;;;1.90;1.90;;;15.50;64.50;;;;;;5099769;27;43399;-70
2023/01/25 11:06:34;;;;;;;2.10;2.10;;;15.60;64.30;;;;;;5099250;27;43387;-71
2023/01/25 11:09:02;;;;;;;2.10;2.10;;;15.70;63.90;;;;;;5079136;27;43961;-71
2023/01/25 11:11:32;;;;;;;2.10;2.10;;;15.70;63.50;;;;;;5102153;27;43592;-71
2023/01/25 11:14:00;;;;;;;1.90;1.90;;;15.70;63.50;;;;;;5102604;27;43456;-71
2023/01/25 11:16:34;;;;;;;1.80;1.80;;;15.60;63.60;;;;;;5093976;27;43550;-71
2023/01/25 11:19:02;;;;;;;2.17;2.17;;;15.60;63.80;;;;;;5095145;27;44017;-70
2023/01/25 11:21:31;;;;;;;2.20;2.20;;;15.60;64.00;;;;;;5098871;27;43911;-70
2023/01/25 11:24:16;;;;;;;2.17;2.17;;;15.60;63.80;;;;;;5081080;27;44925;-71
2023/01/25 11:26:44;;;;;;;2.07;2.07;;;15.60;63.80;;;;;;5090450;27;43420;-70
2023/01/25 11:29:16;;;;;;;2.40;2.30;;;15.60;63.90;;;;;;5090073;27;44260;-71
2023/01/25 11:31:47;;;;;;;1.87;1.87;;;15.60;64.00;;;;;;5095647;27;44080;-70
2023/01/25 11:34:16;;;;;;;2.23;2.23;;;15.50;64.00;;;;;;5099445;27;43392;-70
2023/01/25 11:37:02;;;;;;;2.60;2.20;;;15.50;64.10;;;;;;5092847;27;43476;-71
2023/01/25 11:39:38;;;;;;;2.50;2.40;;;15.50;64.20;;;;;;5101068;27;43661;-70
2023/01/25 11:42:12;;;;;;;1.93;1.93;;;15.50;64.10;;;;;;5098825;27;43772;-71
2023/01/25 11:44:58;;;;;;;2.27;2.27;;;15.50;64.10;;;;;;5087584;27;43525;-71
2023/01/25 11:47:36;;;;;;;2.00;2.00;;;15.50;64.20;;;;;;5083001;27;43458;-71
2023/01/25 11:50:07;;;;;;;2.00;2.00;;;15.50;64.20;;;;;;5068798;28;43616;-70
2023/01/25 11:52:43;;;;;;;2.00;2.00;;;15.50;64.20;;;;;;5086295;27;43563;-71
2023/01/25 11:55:18;;;;;;;2.07;2.03;;;15.50;64.50;;;;;;5086194;27;43482;-70
2023/01/25 11:57:52;;;;;;;2.20;2.10;;;15.50;64.30;;;;;;5080601;27;43482;-72
2023/01/25 12:00:29;;;;;;;2.20;2.20;;;15.50;64.30;;;;;;5086399;27;43537;-70
2023/01/25 12:03:20;;;;;;;2.13;2.13;;;15.50;64.20;;;;;;5085767;27;43682;-71
2023/01/25 12:05:53;;;;;;;2.20;2.20;;;15.50;64.20;;;;;;5047121;27;43982;-71
2023/01/25 12:08:34;;;;;;;2.30;2.20;;;15.50;64.30;;;;;;5086414;27;43430;-71
2023/01/25 12:11:06;;;;;;;1.93;1.93;;;15.50;64.30;;;;;;5068107;27;43999;-70
2023/01/25 12:13:39;;;;;;;2.10;2.10;;;15.50;64.60;;;;;;5070891;27;46097;-70
2023/01/25 12:16:24;;;;;;;1.90;1.90;;;15.50;64.50;;;;;;5070814;27;45100;-72
2023/01/25 12:19:24;;;;;;;1.97;1.97;;;15.60;64.20;;;;;;5087750;27;43385;-71
2023/01/25 12:22:03;;;;;;;2.20;2.20;;;15.80;63.80;;;;;;5090125;27;43920;-71
2023/01/25 12:24:41;;;;;;;2.10;2.10;;;15.80;63.30;;;;;;5088062;27;43682;-70
2023/01/25 12:27:15;;;;;;;2.20;2.20;;;15.80;63.30;;;;;;5089492;27;43884;-69
2023/01/25 12:29:44;;;;;;;2.20;2.20;;;15.70;63.50;;;;;;5105579;27;43350;-72
2023/01/25 12:32:14;;;;;;;2.30;2.30;;;15.60;63.70;;;;;;5100641;27;43399;-70
2023/01/25 12:34:44;;;;;;;2.30;2.30;;;15.70;64.00;;;;;;5084781;27;45646;-71
2023/01/25 12:37:15;;;;;;;2.20;2.10;;;15.60;63.80;;;;;;5098289;27;43906;-71
2023/01/25 12:39:45;;;;;;;2.13;2.13;;;15.60;63.80;;;;;;5073631;27;43406;-70
2023/01/25 12:42:16;;;;;;;2.63;2.50;;;15.60;63.80;;;;;;5097516;27;43858;-70
2023/01/25 12:44:46;;;;;;;2.63;2.40;;;15.60;63.80;;;;;;5100399;27;43991;-70
2023/01/25 12:47:15;;;;;;;2.43;2.33;;;15.50;63.70;;;;;;5103379;27;43446;-71
2023/01/25 12:49:48;;;;;;;2.40;2.30;;;15.50;64.10;;;;;;5101516;27;43498;-70
2023/01/25 12:52:19;;;;;;;3.03;2.20;;;15.50;63.80;;;;;;5108377;27;43366;-71
2023/01/25 12:54:47;;;;;;;2.60;2.40;;;15.50;63.80;;;;;;5099720;27;43953;-71
2023/01/25 12:57:19;;;;;;;2.50;2.47;;;15.50;63.80;;;;;;5086750;27;44742;-70
2023/01/25 12:59:52;;;;;;;2.33;2.33;;;15.50;63.90;;;;;;5086523;27;43366;-70
2023/01/25 13:02:36;;;;;;;2.30;2.30;;;15.50;64.00;;;;;;5097227;27;44031;-70
2023/01/25 13:05:15;;;;;;;2.67;2.57;;;15.50;64.10;;;;;;5099447;27;43916;-70
2023/01/25 13:07:44;;;;;;;2.70;2.60;;;15.40;64.30;;;;;;5090834;27;43590;-70
2023/01/25 13:10:16;;;;;;;2.60;2.50;;;15.50;64.30;;;;;;5102529;27;43482;-72